sensor_id;sensor_type;location;lat;lon;timestamp;P1;durP1;ratioP1;P2;durP2;ratioP2
55254;SDS011;41118;44.634;11.182;2022-09-29T00:00:38;6.60;;;5.28;;
55254;SDS011;41118;44.634;11.182;2022-09-29T00:03:04;14.65;;;13.95;;
55254;SDS011;41118;44.634;11.182;2022-09-29T00:05:30;6.32;;;6.05;;
55254;SDS011;41118;44.634;11.182;2022-09-29T00:07:56;9.40;;;9.07;;
55254;SDS011;41118;44.634;11.182;2022-09-29T00:10:23;6.22;;;5.88;;
55254;SDS011;41118;44.634;11.182;2022-09-29T00:12:49;5.18;;;5.03;;
55254;SDS011;41118;44.634;11.182;2022-09-29T00:15:15;14.55;;;13.85;;
55254;SDS011;41118;44.634;11.182;2022-09-29T00:17:42;14.50;;;13.98;;
55254;SDS011;41118;44.634;11.182;2022-09-29T00:20:08;13.93;;;13.23;;
55254;SDS011;41118;44.634;11.182;2022-09-29T00:22:34;8.23;;;7.43;;
55254;SDS011;41118;44.634;11.182;2022-09-29T00:25:00;8.77;;;8.48;;
55254;SDS011;41118;44.634;11.182;2022-09-29T00:27:26;6.30;;;6.00;;
55254;SDS011;41118;44.634;11.182;2022-09-29T00:29:53;13.88;;;13.30;;
55254;SDS011;41118;44.634;11.182;2022-09-29T00:32:19;11.73;;;11.35;;
55254;SDS011;41118;44.634;11.182;2022-09-29T00:34:45;12.27;;;11.18;;
55254;SDS011;41118;44.634;11.182;2022-09-29T00:37:11;18.05;;;17.52;;
55254;SDS011;41118;44.634;11.182;2022-09-29T00:39:38;18.00;;;17.25;;
55254;SDS011;41118;44.634;11.182;2022-09-29T00:42:04;12.05;;;11.65;;
55254;SDS011;41118;44.634;11.182;2022-09-29T00:47:16;14.73;;;14.32;;
55254;SDS011;41118;44.634;11.182;2022-09-29T00:49:48;9.02;;;8.73;;
55254;SDS011;41118;44.634;11.182;2022-09-29T00:54:43;11.68;;;11.27;;
55254;SDS011;41118;44.634;11.182;2022-09-29T00:57:11;7.57;;;7.28;;
55254;SDS011;41118;44.634;11.182;2022-09-29T01:02:39;8.13;;;7.75;;
55254;SDS011;41118;44.634;11.182;2022-09-29T01:05:09;8.38;;;7.97;;
55254;SDS011;41118;44.634;11.182;2022-09-29T01:07:38;8.73;;;8.18;;
55254;SDS011;41118;44.634;11.182;2022-09-29T01:10:04;7.78;;;7.43;;
55254;SDS011;41118;44.634;11.182;2022-09-29T01:12:30;26.60;;;25.25;;
55254;SDS011;41118;44.634;11.182;2022-09-29T01:14:56;14.18;;;13.48;;
55254;SDS011;41118;44.634;11.182;2022-09-29T01:17:23;5.55;;;5.20;;
55254;SDS011;41118;44.634;11.182;2022-09-29T01:20:02;7.80;;;7.47;;
55254;SDS011;41118;44.634;11.182;2022-09-29T01:25:24;16.75;;;16.17;;
55254;SDS011;41118;44.634;11.182;2022-09-29T01:40:38;10.68;;;8.13;;
55254;SDS011;41118;44.634;11.182;2022-09-29T01:43:08;7.70;;;7.10;;
55254;SDS011;41118;44.634;11.182;2022-09-29T01:45:39;5.30;;;4.80;;
55254;SDS011;41118;44.634;11.182;2022-09-29T01:48:17;13.25;;;12.70;;
55254;SDS011;41118;44.634;11.182;2022-09-29T01:50:47;12.43;;;12.10;;
55254;SDS011;41118;44.634;11.182;2022-09-29T01:53:17;7.90;;;7.43;;
55254;SDS011;41118;44.634;11.182;2022-09-29T01:55:46;14.27;;;13.85;;
55254;SDS011;41118;44.634;11.182;2022-09-29T01:58:19;8.35;;;7.95;;
55254;SDS011;41118;44.634;11.182;2022-09-29T02:00:48;14.40;;;13.75;;
55254;SDS011;41118;44.634;11.182;2022-09-29T02:05:51;11.10;;;10.73;;
55254;SDS011;41118;44.634;11.182;2022-09-29T02:08:23;13.20;;;12.57;;
55254;SDS011;41118;44.634;11.182;2022-09-29T02:13:19;13.38;;;12.57;;
55254;SDS011;41118;44.634;11.182;2022-09-29T02:15:47;12.75;;;11.98;;
55254;SDS011;41118;44.634;11.182;2022-09-29T02:18:17;7.82;;;7.63;;
55254;SDS011;41118;44.634;11.182;2022-09-29T02:20:45;2.22;;;0.30;;
55254;SDS011;41118;44.634;11.182;2022-09-29T02:23:11;1.63;;;0.40;;
55254;SDS011;41118;44.634;11.182;2022-09-29T02:25:37;3.40;;;0.65;;
55254;SDS011;41118;44.634;11.182;2022-09-29T02:28:03;2.47;;;1.10;;
55254;SDS011;41118;44.634;11.182;2022-09-29T02:30:30;3.88;;;0.30;;
55254;SDS011;41118;44.634;11.182;2022-09-29T02:32:57;1.98;;;0.68;;
55254;SDS011;41118;44.634;11.182;2022-09-29T02:35:23;1.30;;;0.40;;
55254;SDS011;41118;44.634;11.182;2022-09-29T02:40:40;1.60;;;0.32;;
55254;SDS011;41118;44.634;11.182;2022-09-29T02:58:48;2.45;;;0.50;;
55254;SDS011;41118;44.634;11.182;2022-09-29T03:01:16;8.70;;;1.15;;
55254;SDS011;41118;44.634;11.182;2022-09-29T03:03:42;2.38;;;0.30;;
55254;SDS011;41118;44.634;11.182;2022-09-29T03:06:09;4.72;;;0.30;;
55254;SDS011;41118;44.634;11.182;2022-09-29T03:08:35;7.03;;;0.52;;
55254;SDS011;41118;44.634;11.182;2022-09-29T03:11:02;2.70;;;0.60;;
55254;SDS011;41118;44.634;11.182;2022-09-29T03:13:28;2.22;;;0.30;;
55254;SDS011;41118;44.634;11.182;2022-09-29T03:15:54;4.63;;;0.60;;
55254;SDS011;41118;44.634;11.182;2022-09-29T03:18:20;4.97;;;0.40;;
55254;SDS011;41118;44.634;11.182;2022-09-29T03:20:48;4.60;;;0.65;;
55254;SDS011;41118;44.634;11.182;2022-09-29T03:23:14;5.88;;;0.38;;
55254;SDS011;41118;44.634;11.182;2022-09-29T03:25:41;6.05;;;0.45;;
55254;SDS011;41118;44.634;11.182;2022-09-29T03:28:07;1.75;;;0.40;;
55254;SDS011;41118;44.634;11.182;2022-09-29T03:30:33;1.83;;;0.47;;
55254;SDS011;41118;44.634;11.182;2022-09-29T03:32:59;3.90;;;0.47;;
55254;SDS011;41118;44.634;11.182;2022-09-29T03:35:25;1.10;;;0.30;;
55254;SDS011;41118;44.634;11.182;2022-09-29T03:37:55;2.50;;;0.40;;
55254;SDS011;41118;44.634;11.182;2022-09-29T03:40:21;6.95;;;0.40;;
55254;SDS011;41118;44.634;11.182;2022-09-29T03:42:48;2.15;;;0.40;;
55254;SDS011;41118;44.634;11.182;2022-09-29T03:45:14;3.63;;;0.57;;
55254;SDS011;41118;44.634;11.182;2022-09-29T03:47:40;3.33;;;0.75;;
55254;SDS011;41118;44.634;11.182;2022-09-29T03:50:06;2.78;;;0.50;;
55254;SDS011;41118;44.634;11.182;2022-09-29T03:52:33;3.85;;;0.30;;
55254;SDS011;41118;44.634;11.182;2022-09-29T03:54:59;5.18;;;0.30;;
55254;SDS011;41118;44.634;11.182;2022-09-29T03:57:25;3.97;;;0.40;;
55254;SDS011;41118;44.634;11.182;2022-09-29T03:59:51;1.83;;;0.68;;
55254;SDS011;41118;44.634;11.182;2022-09-29T04:02:18;3.95;;;0.32;;
55254;SDS011;41118;44.634;11.182;2022-09-29T04:04:44;1.85;;;0.40;;
55254;SDS011;41118;44.634;11.182;2022-09-29T04:07:10;3.85;;;0.40;;
55254;SDS011;41118;44.634;11.182;2022-09-29T04:09:37;2.42;;;0.38;;
55254;SDS011;41118;44.634;11.182;2022-09-29T04:12:03;3.40;;;0.85;;
55254;SDS011;41118;44.634;11.182;2022-09-29T04:14:29;2.30;;;0.40;;
55254;SDS011;41118;44.634;11.182;2022-09-29T04:16:55;6.82;;;1.38;;
55254;SDS011;41118;44.634;11.182;2022-09-29T04:19:21;1.20;;;0.40;;
55254;SDS011;41118;44.634;11.182;2022-09-29T04:21:48;3.85;;;0.40;;
55254;SDS011;41118;44.634;11.182;2022-09-29T04:24:15;1.73;;;0.30;;
55254;SDS011;41118;44.634;11.182;2022-09-29T04:26:41;2.20;;;0.50;;
55254;SDS011;41118;44.634;11.182;2022-09-29T04:29:07;3.60;;;0.40;;
55254;SDS011;41118;44.634;11.182;2022-09-29T04:31:33;1.85;;;0.38;;
55254;SDS011;41118;44.634;11.182;2022-09-29T04:34:00;4.28;;;0.68;;
55254;SDS011;41118;44.634;11.182;2022-09-29T04:36:26;3.22;;;0.50;;
55254;SDS011;41118;44.634;11.182;2022-09-29T04:38:52;4.15;;;0.60;;
55254;SDS011;41118;44.634;11.182;2022-09-29T04:41:18;1.58;;;0.65;;
55254;SDS011;41118;44.634;11.182;2022-09-29T04:43:45;2.28;;;0.40;;
55254;SDS011;41118;44.634;11.182;2022-09-29T04:46:11;2.50;;;0.40;;
55254;SDS011;41118;44.634;11.182;2022-09-29T04:48:38;4.15;;;0.57;;
55254;SDS011;41118;44.634;11.182;2022-09-29T04:51:05;7.20;;;0.43;;
55254;SDS011;41118;44.634;11.182;2022-09-29T04:53:32;4.63;;;0.50;;
55254;SDS011;41118;44.634;11.182;2022-09-29T04:55:58;4.47;;;0.40;;
55254;SDS011;41118;44.634;11.182;2022-09-29T04:58:24;6.05;;;0.40;;
55254;SDS011;41118;44.634;11.182;2022-09-29T05:00:50;2.97;;;0.50;;
55254;SDS011;41118;44.634;11.182;2022-09-29T05:03:16;2.03;;;0.50;;
55254;SDS011;41118;44.634;11.182;2022-09-29T05:05:42;8.30;;;0.40;;
55254;SDS011;41118;44.634;11.182;2022-09-29T05:08:08;4.18;;;0.40;;
55254;SDS011;41118;44.634;11.182;2022-09-29T05:10:34;2.95;;;0.40;;
55254;SDS011;41118;44.634;11.182;2022-09-29T05:13:01;1.67;;;0.40;;
55254;SDS011;41118;44.634;11.182;2022-09-29T05:15:27;1.80;;;0.40;;
55254;SDS011;41118;44.634;11.182;2022-09-29T05:17:53;3.25;;;0.40;;
55254;SDS011;41118;44.634;11.182;2022-09-29T05:20:19;2.35;;;0.50;;
55254;SDS011;41118;44.634;11.182;2022-09-29T05:22:45;1.92;;;0.45;;
55254;SDS011;41118;44.634;11.182;2022-09-29T05:25:11;4.40;;;0.98;;
55254;SDS011;41118;44.634;11.182;2022-09-29T05:27:38;5.88;;;0.40;;
55254;SDS011;41118;44.634;11.182;2022-09-29T05:30:04;4.72;;;0.50;;
55254;SDS011;41118;44.634;11.182;2022-09-29T05:32:31;5.40;;;0.82;;
55254;SDS011;41118;44.634;11.182;2022-09-29T05:34:57;2.35;;;0.50;;
55254;SDS011;41118;44.634;11.182;2022-09-29T05:37:23;5.60;;;0.60;;
55254;SDS011;41118;44.634;11.182;2022-09-29T05:39:49;2.17;;;0.82;;
55254;SDS011;41118;44.634;11.182;2022-09-29T05:42:15;3.30;;;0.50;;
55254;SDS011;41118;44.634;11.182;2022-09-29T05:44:41;6.20;;;0.50;;
55254;SDS011;41118;44.634;11.182;2022-09-29T05:47:08;1.52;;;0.40;;
55254;SDS011;41118;44.634;11.182;2022-09-29T05:49:34;6.85;;;0.98;;
55254;SDS011;41118;44.634;11.182;2022-09-29T05:52:00;4.78;;;0.55;;
55254;SDS011;41118;44.634;11.182;2022-09-29T05:54:27;3.92;;;0.52;;
55254;SDS011;41118;44.634;11.182;2022-09-29T05:56:53;5.07;;;0.50;;
55254;SDS011;41118;44.634;11.182;2022-09-29T05:59:20;3.28;;;1.00;;
55254;SDS011;41118;44.634;11.182;2022-09-29T06:01:46;2.38;;;0.50;;
55254;SDS011;41118;44.634;11.182;2022-09-29T06:04:12;5.47;;;0.55;;
55254;SDS011;41118;44.634;11.182;2022-09-29T06:06:38;2.90;;;0.50;;
55254;SDS011;41118;44.634;11.182;2022-09-29T06:09:04;5.32;;;0.80;;
55254;SDS011;41118;44.634;11.182;2022-09-29T06:11:31;13.68;;;2.58;;
55254;SDS011;41118;44.634;11.182;2022-09-29T06:13:57;12.85;;;3.80;;
55254;SDS011;41118;44.634;11.182;2022-09-29T06:16:25;6.85;;;3.15;;
55254;SDS011;41118;44.634;11.182;2022-09-29T06:18:52;4.95;;;1.63;;
55254;SDS011;41118;44.634;11.182;2022-09-29T06:21:19;6.97;;;1.95;;
55254;SDS011;41118;44.634;11.182;2022-09-29T06:23:45;8.18;;;1.55;;
55254;SDS011;41118;44.634;11.182;2022-09-29T06:26:13;13.13;;;3.38;;
55254;SDS011;41118;44.634;11.182;2022-09-29T06:28:39;9.80;;;2.35;;
55254;SDS011;41118;44.634;11.182;2022-09-29T06:31:07;18.13;;;5.18;;
55254;SDS011;41118;44.634;11.182;2022-09-29T06:33:34;9.98;;;3.13;;
55254;SDS011;41118;44.634;11.182;2022-09-29T06:36:25;11.32;;;5.47;;
55254;SDS011;41118;44.634;11.182;2022-09-29T06:39:09;9.88;;;2.97;;
55254;SDS011;41118;44.634;11.182;2022-09-29T06:41:36;15.20;;;5.80;;
55254;SDS011;41118;44.634;11.182;2022-09-29T06:44:02;12.65;;;3.67;;
55254;SDS011;41118;44.634;11.182;2022-09-29T06:46:29;21.80;;;6.65;;
55254;SDS011;41118;44.634;11.182;2022-09-29T06:48:55;18.60;;;9.95;;
55254;SDS011;41118;44.634;11.182;2022-09-29T06:51:22;18.65;;;7.20;;
55254;SDS011;41118;44.634;11.182;2022-09-29T06:53:48;7.32;;;4.90;;
55254;SDS011;41118;44.634;11.182;2022-09-29T06:56:15;9.70;;;3.65;;
55254;SDS011;41118;44.634;11.182;2022-09-29T06:58:42;7.30;;;3.20;;
55254;SDS011;41118;44.634;11.182;2022-09-29T07:01:09;10.85;;;5.03;;
55254;SDS011;41118;44.634;11.182;2022-09-29T07:03:35;9.45;;;4.35;;
55254;SDS011;41118;44.634;11.182;2022-09-29T07:06:05;12.52;;;4.28;;
55254;SDS011;41118;44.634;11.182;2022-09-29T07:08:32;10.32;;;4.53;;
55254;SDS011;41118;44.634;11.182;2022-09-29T07:11:03;20.50;;;7.20;;
55254;SDS011;41118;44.634;11.182;2022-09-29T07:13:30;22.63;;;8.10;;
55254;SDS011;41118;44.634;11.182;2022-09-29T07:15:56;9.50;;;5.20;;
55254;SDS011;41118;44.634;11.182;2022-09-29T07:18:27;13.63;;;6.20;;
55254;SDS011;41118;44.634;11.182;2022-09-29T07:20:55;13.68;;;5.75;;
55254;SDS011;41118;44.634;11.182;2022-09-29T07:23:21;17.73;;;6.63;;
55254;SDS011;41118;44.634;11.182;2022-09-29T07:25:47;8.18;;;4.32;;
55254;SDS011;41118;44.634;11.182;2022-09-29T07:28:13;24.55;;;5.43;;
55254;SDS011;41118;44.634;11.182;2022-09-29T07:30:39;11.27;;;3.40;;
55254;SDS011;41118;44.634;11.182;2022-09-29T07:33:05;13.82;;;3.97;;
55254;SDS011;41118;44.634;11.182;2022-09-29T07:35:31;8.73;;;3.78;;
55254;SDS011;41118;44.634;11.182;2022-09-29T07:37:58;7.43;;;2.72;;
55254;SDS011;41118;44.634;11.182;2022-09-29T07:40:24;13.32;;;3.70;;
55254;SDS011;41118;44.634;11.182;2022-09-29T07:42:52;9.85;;;3.13;;
55254;SDS011;41118;44.634;11.182;2022-09-29T07:45:19;10.45;;;4.15;;
55254;SDS011;41118;44.634;11.182;2022-09-29T07:47:45;12.23;;;5.18;;
55254;SDS011;41118;44.634;11.182;2022-09-29T07:50:11;8.43;;;2.60;;
55254;SDS011;41118;44.634;11.182;2022-09-29T07:52:38;13.55;;;4.50;;
55254;SDS011;41118;44.634;11.182;2022-09-29T07:55:04;10.23;;;5.50;;
55254;SDS011;41118;44.634;11.182;2022-09-29T07:57:31;8.40;;;3.45;;
55254;SDS011;41118;44.634;11.182;2022-09-29T07:59:57;16.17;;;4.70;;
55254;SDS011;41118;44.634;11.182;2022-09-29T08:02:24;7.93;;;2.70;;
55254;SDS011;41118;44.634;11.182;2022-09-29T08:04:50;10.27;;;3.40;;
55254;SDS011;41118;44.634;11.182;2022-09-29T08:07:16;12.77;;;4.85;;
55254;SDS011;41118;44.634;11.182;2022-09-29T08:09:42;9.07;;;3.42;;
55254;SDS011;41118;44.634;11.182;2022-09-29T08:12:09;11.10;;;4.38;;
55254;SDS011;41118;44.634;11.182;2022-09-29T08:14:37;13.05;;;3.97;;
55254;SDS011;41118;44.634;11.182;2022-09-29T08:17:03;10.18;;;4.72;;
55254;SDS011;41118;44.634;11.182;2022-09-29T08:19:29;9.00;;;2.25;;
55254;SDS011;41118;44.634;11.182;2022-09-29T08:21:55;8.52;;;2.22;;
55254;SDS011;41118;44.634;11.182;2022-09-29T08:24:22;8.32;;;2.80;;
55254;SDS011;41118;44.634;11.182;2022-09-29T08:26:49;8.85;;;3.35;;
55254;SDS011;41118;44.634;11.182;2022-09-29T08:29:15;7.90;;;4.97;;
55254;SDS011;41118;44.634;11.182;2022-09-29T08:31:41;8.18;;;2.20;;
55254;SDS011;41118;44.634;11.182;2022-09-29T08:34:07;7.75;;;2.40;;
55254;SDS011;41118;44.634;11.182;2022-09-29T08:36:34;9.07;;;2.85;;
55254;SDS011;41118;44.634;11.182;2022-09-29T08:39:00;7.35;;;2.92;;
55254;SDS011;41118;44.634;11.182;2022-09-29T08:43:53;7.78;;;2.17;;
55254;SDS011;41118;44.634;11.182;2022-09-29T08:46:25;12.00;;;3.85;;
55254;SDS011;41118;44.634;11.182;2022-09-29T08:48:52;9.15;;;4.57;;
55254;SDS011;41118;44.634;11.182;2022-09-29T08:51:23;9.40;;;3.95;;
55254;SDS011;41118;44.634;11.182;2022-09-29T08:53:50;10.73;;;4.35;;
55254;SDS011;41118;44.634;11.182;2022-09-29T08:56:18;10.75;;;3.28;;
55254;SDS011;41118;44.634;11.182;2022-09-29T08:58:45;5.38;;;3.67;;
55254;SDS011;41118;44.634;11.182;2022-09-29T09:06:24;13.95;;;3.67;;
55254;SDS011;41118;44.634;11.182;2022-09-29T09:27:04;8.40;;;1.88;;
55254;SDS011;41118;44.634;11.182;2022-09-29T09:29:34;7.40;;;2.13;;
55254;SDS011;41118;44.634;11.182;2022-09-29T09:32:06;8.77;;;3.83;;
55254;SDS011;41118;44.634;11.182;2022-09-29T09:37:03;12.30;;;2.70;;
55254;SDS011;41118;44.634;11.182;2022-09-29T09:39:40;8.05;;;3.05;;
55254;SDS011;41118;44.634;11.182;2022-09-29T09:42:11;4.63;;;2.00;;
55254;SDS011;41118;44.634;11.182;2022-09-29T09:44:40;7.70;;;1.95;;
55254;SDS011;41118;44.634;11.182;2022-09-29T09:47:20;5.25;;;1.23;;
55254;SDS011;41118;44.634;11.182;2022-09-29T09:49:48;5.07;;;1.65;;
55254;SDS011;41118;44.634;11.182;2022-09-29T09:52:24;8.48;;;2.25;;
55254;SDS011;41118;44.634;11.182;2022-09-29T09:54:53;6.07;;;1.77;;
55254;SDS011;41118;44.634;11.182;2022-09-29T10:02:28;10.27;;;2.05;;
55254;SDS011;41118;44.634;11.182;2022-09-29T10:04:55;3.67;;;1.67;;
55254;SDS011;41118;44.634;11.182;2022-09-29T10:07:22;6.38;;;0.98;;
55254;SDS011;41118;44.634;11.182;2022-09-29T10:09:49;5.78;;;0.50;;
55254;SDS011;41118;44.634;11.182;2022-09-29T10:12:20;5.10;;;0.85;;
55254;SDS011;41118;44.634;11.182;2022-09-29T10:17:25;6.65;;;0.68;;
55254;SDS011;41118;44.634;11.182;2022-09-29T10:19:54;6.40;;;0.50;;
55254;SDS011;41118;44.634;11.182;2022-09-29T10:22:30;4.05;;;0.38;;
55254;SDS011;41118;44.634;11.182;2022-09-29T10:25:18;6.20;;;0.85;;
55254;SDS011;41118;44.634;11.182;2022-09-29T10:27:52;7.75;;;0.40;;
55254;SDS011;41118;44.634;11.182;2022-09-29T10:30:32;1.47;;;0.47;;
55254;SDS011;41118;44.634;11.182;2022-09-29T10:33:10;3.17;;;0.40;;
55254;SDS011;41118;44.634;11.182;2022-09-29T10:35:40;1.40;;;0.50;;
55254;SDS011;41118;44.634;11.182;2022-09-29T10:41:19;2.50;;;0.20;;
55254;SDS011;41118;44.634;11.182;2022-09-29T10:43:46;3.65;;;0.22;;
55254;SDS011;41118;44.634;11.182;2022-09-29T10:49:35;1.50;;;0.00;;
55254;SDS011;41118;44.634;11.182;2022-09-29T10:52:02;1.65;;;0.13;;
55254;SDS011;41118;44.634;11.182;2022-09-29T10:54:31;7.50;;;0.10;;
55254;SDS011;41118;44.634;11.182;2022-09-29T10:56:57;0.88;;;0.17;;
55254;SDS011;41118;44.634;11.182;2022-09-29T10:59:24;1.40;;;0.10;;
55254;SDS011;41118;44.634;11.182;2022-09-29T11:01:53;0.82;;;0.00;;
55254;SDS011;41118;44.634;11.182;2022-09-29T11:04:25;2.13;;;0.00;;
55254;SDS011;41118;44.634;11.182;2022-09-29T11:06:54;0.38;;;0.05;;
55254;SDS011;41118;44.634;11.182;2022-09-29T11:09:28;0.43;;;0.10;;
55254;SDS011;41118;44.634;11.182;2022-09-29T11:11:56;1.02;;;0.38;;
55254;SDS011;41118;44.634;11.182;2022-09-29T11:16:53;2.80;;;0.10;;
55254;SDS011;41118;44.634;11.182;2022-09-29T11:19:19;2.67;;;0.10;;
55254;SDS011;41118;44.634;11.182;2022-09-29T11:41:54;2.47;;;0.00;;
55254;SDS011;41118;44.634;11.182;2022-09-29T11:44:30;6.00;;;0.10;;
55254;SDS011;41118;44.634;11.182;2022-09-29T11:57:18;0.03;;;0.00;;
55254;SDS011;41118;44.634;11.182;2022-09-29T12:17:20;0.15;;;0.00;;
55254;SDS011;41118;44.634;11.182;2022-09-29T12:19:49;0.70;;;0.03;;
55254;SDS011;41118;44.634;11.182;2022-09-29T12:22:17;2.00;;;0.00;;
55254;SDS011;41118;44.634;11.182;2022-09-29T12:24:49;2.63;;;0.15;;
55254;SDS011;41118;44.634;11.182;2022-09-29T12:29:55;1.17;;;0.00;;
55254;SDS011;41118;44.634;11.182;2022-09-29T12:34:50;1.95;;;0.00;;
55254;SDS011;41118;44.634;11.182;2022-09-29T12:45:12;0.32;;;0.10;;
55254;SDS011;41118;44.634;11.182;2022-09-29T12:48:00;0.85;;;0.00;;
55254;SDS011;41118;44.634;11.182;2022-09-29T12:50:32;0.13;;;0.00;;
55254;SDS011;41118;44.634;11.182;2022-09-29T12:55:53;1.33;;;0.00;;
55254;SDS011;41118;44.634;11.182;2022-09-29T13:01:02;0.30;;;0.00;;
55254;SDS011;41118;44.634;11.182;2022-09-29T13:21:57;0.15;;;0.00;;
55254;SDS011;41118;44.634;11.182;2022-09-29T13:27:14;1.83;;;0.00;;
55254;SDS011;41118;44.634;11.182;2022-09-29T13:29:49;2.60;;;0.00;;
55254;SDS011;41118;44.634;11.182;2022-09-29T13:32:18;0.00;;;0.00;;
55254;SDS011;41118;44.634;11.182;2022-09-29T13:34:52;0.17;;;0.00;;
55254;SDS011;41118;44.634;11.182;2022-09-29T13:37:20;0.90;;;0.00;;
55254;SDS011;41118;44.634;11.182;2022-09-29T13:39:52;0.82;;;0.00;;
55254;SDS011;41118;44.634;11.182;2022-09-29T13:42:31;0.13;;;0.00;;
55254;SDS011;41118;44.634;11.182;2022-09-29T13:47:49;0.20;;;0.00;;
55254;SDS011;41118;44.634;11.182;2022-09-29T13:58:28;0.10;;;0.00;;
55254;SDS011;41118;44.634;11.182;2022-09-29T14:00:59;1.05;;;0.00;;
55254;SDS011;41118;44.634;11.182;2022-09-29T14:03:36;0.10;;;0.00;;
55254;SDS011;41118;44.634;11.182;2022-09-29T14:08:34;0.17;;;0.00;;
55254;SDS011;41118;44.634;11.182;2022-09-29T14:11:03;3.65;;;0.00;;
55254;SDS011;41118;44.634;11.182;2022-09-29T14:22:47;0.68;;;0.00;;
55254;SDS011;41118;44.634;11.182;2022-09-29T14:29:49;0.05;;;0.00;;
55254;SDS011;41118;44.634;11.182;2022-09-29T14:32:16;1.65;;;0.00;;
55254;SDS011;41118;44.634;11.182;2022-09-29T14:34:43;0.20;;;0.00;;
55254;SDS011;41118;44.634;11.182;2022-09-29T14:37:17;0.10;;;0.00;;
55254;SDS011;41118;44.634;11.182;2022-09-29T14:39:45;2.30;;;0.00;;
55254;SDS011;41118;44.634;11.182;2022-09-29T14:42:31;0.00;;;0.00;;
55254;SDS011;41118;44.634;11.182;2022-09-29T14:44:58;0.00;;;0.00;;
55254;SDS011;41118;44.634;11.182;2022-09-29T14:47:55;1.23;;;0.00;;
55254;SDS011;41118;44.634;11.182;2022-09-29T14:50:47;1.85;;;0.00;;
55254;SDS011;41118;44.634;11.182;2022-09-29T15:03:44;0.10;;;0.00;;
55254;SDS011;41118;44.634;11.182;2022-09-29T15:06:18;0.20;;;0.00;;
55254;SDS011;41118;44.634;11.182;2022-09-29T15:08:55;1.77;;;0.00;;
55254;SDS011;41118;44.634;11.182;2022-09-29T15:13:51;5.07;;;0.00;;
55254;SDS011;41118;44.634;11.182;2022-09-29T15:26:41;1.20;;;0.00;;
55254;SDS011;41118;44.634;11.182;2022-09-29T15:29:10;0.10;;;0.00;;
55254;SDS011;41118;44.634;11.182;2022-09-29T15:31:38;0.10;;;0.00;;
55254;SDS011;41118;44.634;11.182;2022-09-29T15:34:08;1.45;;;0.00;;
55254;SDS011;41118;44.634;11.182;2022-09-29T15:36:38;1.15;;;0.00;;
55254;SDS011;41118;44.634;11.182;2022-09-29T15:39:05;2.10;;;0.00;;
55254;SDS011;41118;44.634;11.182;2022-09-29T15:41:32;0.60;;;0.00;;
55254;SDS011;41118;44.634;11.182;2022-09-29T15:44:07;0.32;;;0.00;;
55254;SDS011;41118;44.634;11.182;2022-09-29T15:46:38;0.05;;;0.00;;
55254;SDS011;41118;44.634;11.182;2022-09-29T15:49:38;1.25;;;0.00;;
55254;SDS011;41118;44.634;11.182;2022-09-29T15:54:28;0.25;;;0.00;;
55254;SDS011;41118;44.634;11.182;2022-09-29T15:56:57;0.38;;;0.00;;
55254;SDS011;41118;44.634;11.182;2022-09-29T16:04:44;0.63;;;0.00;;
55254;SDS011;41118;44.634;11.182;2022-09-29T16:07:16;0.38;;;0.00;;
55254;SDS011;41118;44.634;11.182;2022-09-29T16:09:43;0.13;;;0.00;;
55254;SDS011;41118;44.634;11.182;2022-09-29T16:12:11;0.10;;;0.00;;
55254;SDS011;41118;44.634;11.182;2022-09-29T16:14:39;1.33;;;0.00;;
55254;SDS011;41118;44.634;11.182;2022-09-29T16:17:05;1.98;;;0.00;;
55254;SDS011;41118;44.634;11.182;2022-09-29T16:19:33;0.20;;;0.00;;
55254;SDS011;41118;44.634;11.182;2022-09-29T16:22:01;1.10;;;0.00;;
55254;SDS011;41118;44.634;11.182;2022-09-29T16:24:28;0.90;;;0.00;;
55254;SDS011;41118;44.634;11.182;2022-09-29T16:26:56;0.98;;;0.00;;
55254;SDS011;41118;44.634;11.182;2022-09-29T16:31:49;0.43;;;0.00;;
55254;SDS011;41118;44.634;11.182;2022-09-29T16:39:21;2.33;;;0.00;;
55254;SDS011;41118;44.634;11.182;2022-09-29T16:41:52;6.10;;;0.03;;
55254;SDS011;41118;44.634;11.182;2022-09-29T16:44:24;0.93;;;0.00;;
55254;SDS011;41118;44.634;11.182;2022-09-29T16:49:21;12.45;;;0.15;;
55254;SDS011;41118;44.634;11.182;2022-09-29T16:51:50;2.25;;;0.10;;
55254;SDS011;41118;44.634;11.182;2022-09-29T16:54:21;2.78;;;0.13;;
55254;SDS011;41118;44.634;11.182;2022-09-29T16:56:48;1.38;;;0.10;;
55254;SDS011;41118;44.634;11.182;2022-09-29T16:59:15;3.72;;;0.05;;
55254;SDS011;41118;44.634;11.182;2022-09-29T17:01:42;2.15;;;0.10;;
55254;SDS011;41118;44.634;11.182;2022-09-29T17:04:09;1.30;;;0.10;;
55254;SDS011;41118;44.634;11.182;2022-09-29T17:06:35;3.33;;;0.10;;
55254;SDS011;41118;44.634;11.182;2022-09-29T17:09:03;2.95;;;0.10;;
55254;SDS011;41118;44.634;11.182;2022-09-29T17:11:29;2.65;;;0.10;;
55254;SDS011;41118;44.634;11.182;2022-09-29T17:13:56;0.45;;;0.00;;
55254;SDS011;41118;44.634;11.182;2022-09-29T17:16:22;3.50;;;0.10;;
55254;SDS011;41118;44.634;11.182;2022-09-29T17:18:49;0.38;;;0.00;;
55254;SDS011;41118;44.634;11.182;2022-09-29T17:21:16;4.07;;;0.08;;
55254;SDS011;41118;44.634;11.182;2022-09-29T17:23:42;1.10;;;0.00;;
55254;SDS011;41118;44.634;11.182;2022-09-29T17:26:18;2.63;;;0.00;;
55254;SDS011;41118;44.634;11.182;2022-09-29T17:29:03;0.10;;;0.00;;
55254;SDS011;41118;44.634;11.182;2022-09-29T17:31:29;2.03;;;0.03;;
55254;SDS011;41118;44.634;11.182;2022-09-29T17:33:55;1.75;;;0.00;;
55254;SDS011;41118;44.634;11.182;2022-09-29T17:36:22;4.45;;;0.47;;
55254;SDS011;41118;44.634;11.182;2022-09-29T17:38:48;0.28;;;0.00;;
55254;SDS011;41118;44.634;11.182;2022-09-29T17:41:15;2.40;;;0.00;;
55254;SDS011;41118;44.634;11.182;2022-09-29T17:43:42;2.30;;;0.00;;
55254;SDS011;41118;44.634;11.182;2022-09-29T17:46:11;1.42;;;0.00;;
55254;SDS011;41118;44.634;11.182;2022-09-29T17:48:38;0.32;;;0.00;;
55254;SDS011;41118;44.634;11.182;2022-09-29T17:51:08;0.70;;;0.00;;
55254;SDS011;41118;44.634;11.182;2022-09-29T17:53:34;0.90;;;0.10;;
55254;SDS011;41118;44.634;11.182;2022-09-29T17:56:01;1.10;;;0.20;;
55254;SDS011;41118;44.634;11.182;2022-09-29T17:58:27;3.05;;;0.10;;
55254;SDS011;41118;44.634;11.182;2022-09-29T18:00:54;0.55;;;0.15;;
55254;SDS011;41118;44.634;11.182;2022-09-29T18:03:24;0.90;;;0.10;;
55254;SDS011;41118;44.634;11.182;2022-09-29T18:05:51;0.98;;;0.10;;
55254;SDS011;41118;44.634;11.182;2022-09-29T18:08:20;4.60;;;0.10;;
55254;SDS011;41118;44.634;11.182;2022-09-29T18:13:13;1.65;;;0.10;;
55254;SDS011;41118;44.634;11.182;2022-09-29T18:15:39;1.70;;;0.32;;
55254;SDS011;41118;44.634;11.182;2022-09-29T18:18:09;2.42;;;0.10;;
55254;SDS011;41118;44.634;11.182;2022-09-29T18:20:36;2.30;;;0.10;;
55254;SDS011;41118;44.634;11.182;2022-09-29T18:23:04;0.68;;;0.10;;
55254;SDS011;41118;44.634;11.182;2022-09-29T18:25:31;1.30;;;0.10;;
55254;SDS011;41118;44.634;11.182;2022-09-29T18:27:57;0.80;;;0.10;;
55254;SDS011;41118;44.634;11.182;2022-09-29T18:30:25;9.63;;;0.15;;
55254;SDS011;41118;44.634;11.182;2022-09-29T18:32:52;1.23;;;0.10;;
55254;SDS011;41118;44.634;11.182;2022-09-29T18:35:22;1.15;;;0.00;;
55254;SDS011;41118;44.634;11.182;2022-09-29T18:37:49;1.38;;;0.00;;
55254;SDS011;41118;44.634;11.182;2022-09-29T18:40:16;2.05;;;0.10;;
55254;SDS011;41118;44.634;11.182;2022-09-29T18:42:43;1.67;;;0.00;;
55254;SDS011;41118;44.634;11.182;2022-09-29T18:45:10;6.60;;;0.10;;
55254;SDS011;41118;44.634;11.182;2022-09-29T18:47:38;8.25;;;0.85;;